createdAt,value
2022-12-01T00:00:10.153Z,0.00
2022-12-01T00:01:10.162Z,0.00
2022-12-01T00:02:10.351Z,0.00
2022-12-01T00:03:10.294Z,0.00
2022-12-01T00:04:10.192Z,0.00
2022-12-01T00:05:10.192Z,0.00
2022-12-01T00:06:10.183Z,0.00
2022-12-01T00:07:10.203Z,0.00
2022-12-01T00:08:10.214Z,0.00
2022-12-01T00:09:12.986Z,0.00
2022-12-01T00:10:10.213Z,0.00
2022-12-01T00:11:10.214Z,0.00
2022-12-01T00:12:10.227Z,0.00
2022-12-01T00:13:10.232Z,0.00
2022-12-01T00:14:10.234Z,0.00
2022-12-01T00:15:10.236Z,0.00
2022-12-01T00:16:10.322Z,0.00
2022-12-01T00:17:10.266Z,0.00
2022-12-01T00:18:10.276Z,0.00
2022-12-01T00:19:10.286Z,0.00
2022-12-01T00:20:10.338Z,0.00
2022-12-01T00:21:10.327Z,0.00
2022-12-01T00:22:10.317Z,0.00
2022-12-01T00:23:10.321Z,0.00
2022-12-01T00:24:10.377Z,0.00
2022-12-01T00:25:10.458Z,0.00
2022-12-01T00:26:10.457Z,0.00
2022-12-01T00:27:10.447Z,0.00
2022-12-01T00:28:10.438Z,0.00
2022-12-01T00:29:10.438Z,0.00
2022-12-01T00:30:10.428Z,0.00
2022-12-01T00:31:10.438Z,0.00
2022-12-01T00:32:10.499Z,0.00
2022-12-01T00:33:10.440Z,0.00
2022-12-01T00:34:11.521Z,0.00
2022-12-01T00:35:10.441Z,0.00
2022-12-01T00:36:10.489Z,0.00
2022-12-01T00:37:10.491Z,0.00
2022-12-01T00:38:10.482Z,0.00
2022-12-01T00:39:10.481Z,0.00
2022-12-01T00:40:10.469Z,0.00
2022-12-01T00:41:10.486Z,0.00
2022-12-01T00:42:13.403Z,0.00
2022-12-01T00:43:10.499Z,0.00
2022-12-01T00:44:10.487Z,0.00
2022-12-01T00:45:10.482Z,0.00
2022-12-01T00:46:10.514Z,0.00
2022-12-01T00:47:10.552Z,0.00
2022-12-01T00:48:10.542Z,0.00
2022-12-01T00:49:10.631Z,0.00
2022-12-01T00:50:10.632Z,0.00
2022-12-01T00:51:10.631Z,0.00
2022-12-01T00:52:10.659Z,0.00
2022-12-01T00:53:10.652Z,0.00
2022-12-01T00:54:10.676Z,0.00
2022-12-01T00:55:10.663Z,0.00
2022-12-01T00:56:10.653Z,0.00
2022-12-01T00:57:10.653Z,0.00
2022-12-01T00:58:10.644Z,0.00
2022-12-01T00:59:10.634Z,0.00
2022-12-01T01:00:10.690Z,0.00
2022-12-01T01:01:10.774Z,0.00
2022-12-01T01:02:10.765Z,0.00
2022-12-01T01:03:10.707Z,0.00
2022-12-01T01:04:10.684Z,0.00
2022-12-01T01:05:10.766Z,0.00
2022-12-01T01:06:10.759Z,0.00
2022-12-01T01:07:10.842Z,0.00
2022-12-01T01:08:10.868Z,0.00
2022-12-01T01:09:10.856Z,0.00
2022-12-01T01:10:10.866Z,0.00
2022-12-01T01:11:10.865Z,0.00
2022-12-01T01:12:10.860Z,0.00
2022-12-01T01:13:10.849Z,0.00
2022-12-01T01:14:10.847Z,0.00
2022-12-01T01:15:10.846Z,0.00
2022-12-01T01:16:10.907Z,0.00
2022-12-01T01:17:10.878Z,0.00
2022-12-01T01:18:10.877Z,0.00
2022-12-01T01:19:10.888Z,0.00
2022-12-01T01:20:10.879Z,0.00
2022-12-01T01:21:10.877Z,0.00
2022-12-01T01:22:10.868Z,0.00
2022-12-01T01:23:10.859Z,0.00
2022-12-01T01:24:10.857Z,0.00
2022-12-01T01:25:10.871Z,0.00
2022-12-01T01:26:10.873Z,0.00
2022-12-01T01:27:10.863Z,0.00
2022-12-01T01:28:10.852Z,0.00
2022-12-01T01:29:10.849Z,0.00
2022-12-01T01:30:10.841Z,0.00
2022-12-01T01:31:10.938Z,0.00
2022-12-01T01:32:10.871Z,0.00
2022-12-01T01:33:10.860Z,0.00
2022-12-01T01:34:10.861Z,0.00
2022-12-01T01:35:10.881Z,0.00
2022-12-01T01:36:10.882Z,0.00
2022-12-01T01:37:10.882Z,0.00
2022-12-01T01:38:10.884Z,0.00
2022-12-01T01:39:10.892Z,0.00
2022-12-01T01:40:10.891Z,0.00
2022-12-01T01:41:10.893Z,0.00
2022-12-01T01:42:10.892Z,0.00
2022-12-01T01:43:10.882Z,0.00
2022-12-01T01:44:10.886Z,0.00
2022-12-01T01:45:10.873Z,0.00
2022-12-01T01:46:10.931Z,0.00
2022-12-01T01:47:10.954Z,0.00
2022-12-01T01:48:10.954Z,0.00
2022-12-01T01:49:10.953Z,0.00
2022-12-01T01:50:10.957Z,0.00
2022-12-01T01:51:10.945Z,0.00
2022-12-01T01:52:10.954Z,0.00
2022-12-01T01:53:10.954Z,0.00
2022-12-01T01:54:10.946Z,0.00
2022-12-01T01:55:10.936Z,0.00
2022-12-01T01:56:10.928Z,0.00
2022-12-01T01:57:10.935Z,0.00
2022-12-01T01:58:10.945Z,0.00
2022-12-01T01:59:10.939Z,0.00
2022-12-01T02:00:10.932Z,0.00
2022-12-01T02:01:11.003Z,0.00
2022-12-01T02:02:10.959Z,0.00
2022-12-01T02:03:10.978Z,0.00
2022-12-01T02:04:10.968Z,0.00
2022-12-01T02:05:10.957Z,0.00
2022-12-01T02:06:10.949Z,0.00
2022-12-01T02:07:10.949Z,0.00
2022-12-01T02:08:11.027Z,0.00
2022-12-01T02:09:10.959Z,0.00
2022-12-01T02:10:10.957Z,0.00
2022-12-01T02:11:10.947Z,0.00
2022-12-01T02:12:10.961Z,0.00
2022-12-01T02:13:10.949Z,0.00
2022-12-01T02:14:10.961Z,0.00
2022-12-01T02:15:10.971Z,0.00
2022-12-01T02:16:11.126Z,0.00
2022-12-01T02:17:10.979Z,0.00
2022-12-01T02:18:10.969Z,0.00
2022-12-01T02:19:10.972Z,0.00
2022-12-01T02:20:10.962Z,0.00
2022-12-01T02:21:10.960Z,0.00
2022-12-01T02:22:10.954Z,0.00
2022-12-01T02:23:10.941Z,0.00
2022-12-01T02:24:10.930Z,0.00
2022-12-01T02:25:10.931Z,0.00
2022-12-01T02:26:10.930Z,0.00
2022-12-01T02:27:10.921Z,0.00
2022-12-01T02:28:10.982Z,0.00
2022-12-01T02:29:10.981Z,0.00
2022-12-01T02:30:10.971Z,0.00
2022-12-01T02:31:14.764Z,0.00
2022-12-01T02:32:11.033Z,0.00
2022-12-01T02:33:11.052Z,0.00
2022-12-01T02:34:11.042Z,0.00
2022-12-01T02:35:11.036Z,0.00
2022-12-01T02:36:11.024Z,0.00
2022-12-01T02:37:11.023Z,0.00
2022-12-01T02:38:11.013Z,0.00
2022-12-01T02:39:11.027Z,0.00
2022-12-01T02:40:11.024Z,0.00
2022-12-01T02:41:11.034Z,0.00
2022-12-01T02:42:11.025Z,0.00
2022-12-01T02:43:11.023Z,0.00
2022-12-01T02:44:11.044Z,0.00
2022-12-01T02:45:11.035Z,0.00
2022-12-01T02:46:11.136Z,0.00
2022-12-01T02:47:11.075Z,0.00
2022-12-01T02:48:16.314Z,0.00
2022-12-01T02:49:11.106Z,0.00
2022-12-01T02:50:11.096Z,0.00
2022-12-01T02:51:11.096Z,0.00
2022-12-01T02:52:11.085Z,0.00
2022-12-01T02:53:11.076Z,0.00
2022-12-01T02:54:11.076Z,0.00
2022-12-01T02:55:11.087Z,0.00
2022-12-01T02:56:11.103Z,0.00
2022-12-01T02:57:11.087Z,0.00
2022-12-01T02:58:11.105Z,0.00
2022-12-01T02:59:11.106Z,0.00
2022-12-01T03:00:11.099Z,0.00
2022-12-01T03:01:11.147Z,0.00
2022-12-01T03:02:11.172Z,0.00
2022-12-01T03:03:11.179Z,0.00
2022-12-01T03:04:11.178Z,0.00
2022-12-01T03:05:11.229Z,0.00
2022-12-01T03:06:11.248Z,0.00
2022-12-01T03:07:11.239Z,0.00
2022-12-01T03:08:11.229Z,0.00
2022-12-01T03:09:11.222Z,0.00
2022-12-01T03:10:11.217Z,0.00
2022-12-01T03:11:11.230Z,0.00
2022-12-01T03:12:11.230Z,0.00
2022-12-01T03:13:11.230Z,0.00
2022-12-01T03:14:11.252Z,0.00
2022-12-01T03:15:11.262Z,0.00
2022-12-01T03:16:11.344Z,0.00
2022-12-01T03:17:11.311Z,0.00
2022-12-01T03:18:11.313Z,0.00
2022-12-01T03:19:11.312Z,0.00
2022-12-01T03:20:11.310Z,0.00
2022-12-01T03:21:11.302Z,0.00
2022-12-01T03:22:11.311Z,0.00
2022-12-01T03:23:11.311Z,0.00
2022-12-01T03:24:11.305Z,0.00
2022-12-01T03:25:11.294Z,0.00
2022-12-01T03:26:11.292Z,0.00
2022-12-01T03:27:11.295Z,0.00
2022-12-01T03:28:21.234Z,0.00
2022-12-01T03:29:11.292Z,0.00
2022-12-01T03:30:11.297Z,0.00
2022-12-01T03:31:11.297Z,0.00
2022-12-01T03:32:11.295Z,0.00
2022-12-01T03:33:11.300Z,0.00
2022-12-01T03:34:11.302Z,0.00
2022-12-01T03:35:11.316Z,0.00
2022-12-01T03:36:11.314Z,0.00
2022-12-01T03:37:11.323Z,0.00
2022-12-01T03:38:11.343Z,0.00
2022-12-01T03:39:11.346Z,0.00
2022-12-01T03:40:11.347Z,0.00
2022-12-01T03:41:11.346Z,0.00
2022-12-01T03:42:11.336Z,0.00
2022-12-01T03:43:11.326Z,0.00
2022-12-01T03:44:11.340Z,0.00
2022-12-01T03:45:11.327Z,0.00
2022-12-01T03:46:11.395Z,0.00
2022-12-01T03:47:11.408Z,0.00
2022-12-01T03:48:11.470Z,0.00
2022-12-01T03:49:11.537Z,0.00
2022-12-01T03:50:11.538Z,0.00
2022-12-01T03:51:11.538Z,0.00
2022-12-01T03:52:11.527Z,0.00
2022-12-01T03:53:11.524Z,0.00
2022-12-01T03:54:11.511Z,0.00
2022-12-01T03:55:11.599Z,0.00
2022-12-01T03:56:11.610Z,0.00
2022-12-01T03:57:11.608Z,0.00
2022-12-01T03:58:11.598Z,0.00
2022-12-01T03:59:11.599Z,0.00
2022-12-01T04:00:11.588Z,0.00
2022-12-01T04:01:11.601Z,0.00
2022-12-01T04:02:11.609Z,0.00
2022-12-01T04:03:11.713Z,0.00
2022-12-01T04:04:11.724Z,0.00
2022-12-01T04:05:11.711Z,0.00
2022-12-01T04:06:11.713Z,0.00
2022-12-01T04:07:11.706Z,0.00
2022-12-01T04:08:11.808Z,0.00
2022-12-01T04:09:11.748Z,0.00
2022-12-01T04:10:11.742Z,0.00
2022-12-01T04:11:11.752Z,0.00
2022-12-01T04:12:11.751Z,0.00
2022-12-01T04:13:11.745Z,0.00
2022-12-01T04:14:11.742Z,0.00
2022-12-01T04:15:11.813Z,0.00
2022-12-01T04:16:11.865Z,0.00
2022-12-01T04:17:11.843Z,0.00
2022-12-01T04:18:11.853Z,0.00
2022-12-01T04:19:11.844Z,0.00
2022-12-01T04:20:11.842Z,0.00
2022-12-01T04:21:11.834Z,0.00
2022-12-01T04:22:11.824Z,0.00
2022-12-01T04:23:11.815Z,0.00
2022-12-01T04:24:11.836Z,0.00
2022-12-01T04:25:11.831Z,0.00
2022-12-01T04:26:15.755Z,0.00
2022-12-01T04:27:11.889Z,0.00
2022-12-01T04:28:11.885Z,0.00
2022-12-01T04:29:11.896Z,0.00
2022-12-01T04:30:11.895Z,0.00
2022-12-01T04:31:11.912Z,0.00
2022-12-01T04:32:11.915Z,0.00
2022-12-01T04:33:11.914Z,0.00
2022-12-01T04:34:12.598Z,0.00
2022-12-01T04:35:11.927Z,0.00
2022-12-01T04:36:11.916Z,0.00
2022-12-01T04:37:11.910Z,0.00
2022-12-01T04:38:11.917Z,0.00
2022-12-01T04:39:12.596Z,0.00
2022-12-01T04:40:11.936Z,0.00
2022-12-01T04:41:11.928Z,0.00
2022-12-01T04:42:11.999Z,0.00
2022-12-01T04:43:11.989Z,0.00
2022-12-01T04:44:12.679Z,0.00
2022-12-01T04:45:12.018Z,0.00
2022-12-01T04:46:12.050Z,0.00
2022-12-01T04:47:12.052Z,0.00
2022-12-01T04:48:12.040Z,0.00
2022-12-01T04:49:12.719Z,0.00
2022-12-01T04:50:12.069Z,0.00
2022-12-01T04:51:12.058Z,0.00
2022-12-01T04:52:12.063Z,0.00
2022-12-01T04:53:12.059Z,0.00
2022-12-01T04:54:12.780Z,0.00
2022-12-01T04:55:12.120Z,0.00
2022-12-01T04:56:12.112Z,0.00
2022-12-01T04:57:12.130Z,0.00
2022-12-01T04:58:12.121Z,0.00
2022-12-01T04:59:12.122Z,0.00
2022-12-01T05:00:12.111Z,0.00
2022-12-01T05:01:12.164Z,0.00
2022-12-01T05:02:12.161Z,0.00
2022-12-01T05:03:15.082Z,0.00
2022-12-01T05:04:12.185Z,0.00
2022-12-01T05:05:12.096Z,0.00
2022-12-01T05:06:12.083Z,0.00
2022-12-01T05:07:12.087Z,0.00
2022-12-01T05:08:12.083Z,0.00
2022-12-01T05:09:16.868Z,0.00
2022-12-01T05:10:12.114Z,0.00
2022-12-01T05:11:12.116Z,0.00
2022-12-01T05:12:12.112Z,0.00
2022-12-01T05:13:12.104Z,0.00
2022-12-01T05:14:12.787Z,0.00
2022-12-01T05:15:12.117Z,0.00
2022-12-01T05:16:12.268Z,0.00
2022-12-01T05:17:12.154Z,0.00
2022-12-01T05:18:12.212Z,0.00
2022-12-01T05:19:12.874Z,0.00
2022-12-01T05:20:12.207Z,0.00
2022-12-01T05:21:12.206Z,0.00
2022-12-01T05:22:12.216Z,0.00
2022-12-01T05:23:16.528Z,0.00
2022-12-01T05:24:12.270Z,0.00
2022-12-01T05:25:12.267Z,0.00
2022-12-01T05:26:12.348Z,0.00
2022-12-01T05:27:12.338Z,0.00
2022-12-01T05:28:12.427Z,0.00
2022-12-01T05:29:12.426Z,0.00
2022-12-01T05:30:12.425Z,0.00
2022-12-01T05:31:12.492Z,0.00
2022-12-01T05:32:12.408Z,0.00
2022-12-01T05:33:12.478Z,0.00
2022-12-01T05:34:12.486Z,0.00
2022-12-01T05:35:12.488Z,0.00
2022-12-01T05:36:12.478Z,0.00
2022-12-01T05:37:12.471Z,0.00
2022-12-01T05:38:12.470Z,0.00
2022-12-01T05:39:12.469Z,0.00
2022-12-01T05:40:12.479Z,0.00
2022-12-01T05:41:12.470Z,0.00
2022-12-01T05:42:12.463Z,0.00
2022-12-01T05:43:12.459Z,0.00
2022-12-01T05:44:12.451Z,0.00
2022-12-01T05:45:12.441Z,0.00
2022-12-01T05:46:12.496Z,0.00
2022-12-01T05:47:12.461Z,0.00
2022-12-01T05:48:12.459Z,0.00
2022-12-01T05:49:12.471Z,0.00
2022-12-01T05:50:12.474Z,0.00
2022-12-01T05:51:12.472Z,0.00
2022-12-01T05:52:12.462Z,0.00
2022-12-01T05:53:12.465Z,0.00
2022-12-01T05:54:12.462Z,0.00
2022-12-01T05:55:12.482Z,0.00
2022-12-01T05:56:12.482Z,0.00
2022-12-01T05:57:12.500Z,0.00
2022-12-01T05:58:12.484Z,0.00
2022-12-01T05:59:12.484Z,0.00
2022-12-01T06:00:12.484Z,0.00
2022-12-01T06:01:12.483Z,0.00
2022-12-01T06:02:12.514Z,0.00
2022-12-01T06:03:12.505Z,0.00
2022-12-01T06:04:12.548Z,0.00
2022-12-01T06:05:12.545Z,0.00
2022-12-01T06:06:12.554Z,0.00
2022-12-01T06:07:12.555Z,0.00
2022-12-01T06:08:12.557Z,0.00
2022-12-01T06:09:12.584Z,0.00
2022-12-01T06:10:12.595Z,0.00
2022-12-01T06:11:12.606Z,0.00
2022-12-01T06:12:12.604Z,0.00
2022-12-01T06:13:12.595Z,0.00
2022-12-01T06:14:12.608Z,0.00
2022-12-01T06:15:12.617Z,0.00
2022-12-01T06:16:12.661Z,0.00
2022-12-01T06:17:12.657Z,0.00
2022-12-01T06:18:12.672Z,0.00
2022-12-01T06:19:12.669Z,0.00
2022-12-01T06:20:12.657Z,0.00
2022-12-01T06:21:12.687Z,0.00
2022-12-01T06:22:12.679Z,0.00
2022-12-01T06:23:12.677Z,0.00
2022-12-01T06:24:12.727Z,0.00
2022-12-01T06:25:12.721Z,0.00
2022-12-01T06:26:12.747Z,0.00
2022-12-01T06:27:12.756Z,0.00
2022-12-01T06:28:12.802Z,0.00
2022-12-01T06:29:12.798Z,0.00
2022-12-01T06:30:12.808Z,0.00
2022-12-01T06:31:12.849Z,0.00
2022-12-01T06:32:12.849Z,0.00
2022-12-01T06:33:12.849Z,0.00
2022-12-01T06:34:12.860Z,0.00
2022-12-01T06:35:12.860Z,0.00
2022-12-01T06:36:12.891Z,0.00
2022-12-01T06:37:12.890Z,0.00
2022-12-01T06:38:12.893Z,0.00
2022-12-01T06:39:12.892Z,0.00
2022-12-01T06:40:12.921Z,0.00
2022-12-01T06:41:12.954Z,0.00
2022-12-01T06:42:12.983Z,0.00
2022-12-01T06:43:12.971Z,4.00
2022-12-01T06:44:12.973Z,4.00
2022-12-01T06:45:12.983Z,0.00
2022-12-01T06:46:13.011Z,4.00
2022-12-01T06:47:13.019Z,4.00
2022-12-01T06:48:13.039Z,4.00
2022-12-01T06:49:13.032Z,4.00
2022-12-01T06:50:13.024Z,4.00
2022-12-01T06:51:13.024Z,8.00
2022-12-01T06:52:13.023Z,8.00
2022-12-01T06:53:13.043Z,8.00
2022-12-01T06:54:13.043Z,12.00
2022-12-01T06:55:13.064Z,12.00
2022-12-01T06:56:13.122Z,16.00
2022-12-01T06:57:13.116Z,16.00
2022-12-01T06:58:13.166Z,20.00
2022-12-01T06:59:13.169Z,20.00
2022-12-01T07:00:13.182Z,20.00
2022-12-01T07:01:16.057Z,20.00
2022-12-01T07:02:13.244Z,24.00
2022-12-01T07:03:13.206Z,28.00
2022-12-01T07:04:13.227Z,32.00
2022-12-01T07:05:13.256Z,40.00
2022-12-01T07:06:13.286Z,36.00
2022-12-01T07:07:13.327Z,40.00
2022-12-01T07:08:13.411Z,44.00
2022-12-01T07:09:13.396Z,48.00
2022-12-01T07:10:13.417Z,60.00
2022-12-01T07:11:13.460Z,68.00
2022-12-01T07:12:13.509Z,76.00
2022-12-01T07:13:13.528Z,80.00
2022-12-01T07:14:13.557Z,80.00
2022-12-01T07:15:13.584Z,76.00
2022-12-01T07:16:13.674Z,80.00
2022-12-01T07:17:13.669Z,84.00
2022-12-01T07:18:13.708Z,96.00
2022-12-01T07:19:13.708Z,100.00
2022-12-01T07:20:13.711Z,100.00
2022-12-01T07:21:13.759Z,112.00
2022-12-01T07:22:13.819Z,120.00
2022-12-01T07:23:13.831Z,124.00
2022-12-01T07:24:13.881Z,124.00
2022-12-01T07:25:14.088Z,136.00
2022-12-01T07:26:13.951Z,148.00
2022-12-01T07:27:14.225Z,144.00
2022-12-01T07:28:13.996Z,144.00
2022-12-01T07:29:14.013Z,160.00
2022-12-01T07:30:14.177Z,160.00
2022-12-01T07:31:14.077Z,160.00
2022-12-01T07:32:14.031Z,180.00
2022-12-01T07:33:14.062Z,220.00
2022-12-01T07:34:14.071Z,244.00
2022-12-01T07:35:14.144Z,220.00
2022-12-01T07:36:14.152Z,216.00
2022-12-01T07:37:14.171Z,216.00
2022-12-01T07:38:19.132Z,232.00
2022-12-01T07:39:14.232Z,280.00
2022-12-01T07:40:14.272Z,288.00
2022-12-01T07:41:14.323Z,288.00
2022-12-01T07:42:14.363Z,324.00
2022-12-01T07:43:14.403Z,372.00
2022-12-01T07:44:14.451Z,376.00
2022-12-01T07:45:14.488Z,376.00
2022-12-01T07:46:20.391Z,368.00
2022-12-01T07:47:14.535Z,344.00
2022-12-01T07:48:14.583Z,404.00
2022-12-01T07:49:14.646Z,412.00
2022-12-01T07:50:14.705Z,416.00
2022-12-01T07:51:14.795Z,420.00
2022-12-01T07:52:14.772Z,424.00
2022-12-01T07:53:14.849Z,376.00
2022-12-01T07:54:14.876Z,380.00
2022-12-01T07:55:14.935Z,420.00
2022-12-01T07:56:14.995Z,392.00
2022-12-01T07:57:15.074Z,420.00
2022-12-01T07:58:15.086Z,448.00
2022-12-01T07:59:15.074Z,488.00
2022-12-01T08:00:15.128Z,532.00
2022-12-01T08:01:15.182Z,520.00
2022-12-01T08:02:15.330Z,520.00
2022-12-01T08:03:15.334Z,480.00
2022-12-01T08:04:15.278Z,584.00
2022-12-01T08:05:15.298Z,584.00
2022-12-01T08:06:15.319Z,572.00
2022-12-01T08:07:15.345Z,500.00
2022-12-01T08:08:15.462Z,532.00
2022-12-01T08:09:15.458Z,572.00
2022-12-01T08:10:15.487Z,560.00
2022-12-01T08:11:15.518Z,528.00
2022-12-01T08:12:15.499Z,496.00
2022-12-01T08:13:17.460Z,484.00
2022-12-01T08:14:15.623Z,504.00
2022-12-01T08:15:15.678Z,552.00
2022-12-01T08:16:15.755Z,592.00
2022-12-01T08:17:15.721Z,624.00
2022-12-01T08:18:15.758Z,680.00
2022-12-01T08:19:15.751Z,728.00
2022-12-01T08:20:19.565Z,688.00
2022-12-01T08:21:15.887Z,668.00
2022-12-01T08:22:15.930Z,696.00
2022-12-01T08:23:15.981Z,744.00
2022-12-01T08:24:16.031Z,744.00
2022-12-01T08:25:16.110Z,716.00
2022-12-01T08:26:16.160Z,696.00
2022-12-01T08:27:16.222Z,700.00
2022-12-01T08:28:16.222Z,712.00
2022-12-01T08:29:20.118Z,684.00
2022-12-01T08:30:16.242Z,764.00
2022-12-01T08:31:16.321Z,896.00
2022-12-01T08:32:16.322Z,1044.00
2022-12-01T08:33:16.306Z,1088.00
2022-12-01T08:34:16.374Z,1144.00
2022-12-01T08:35:16.411Z,1204.00
2022-12-01T08:36:16.475Z,1340.00
2022-12-01T08:37:16.474Z,1400.00
2022-12-01T08:38:16.548Z,1440.00
2022-12-01T08:39:16.675Z,1488.00
2022-12-01T08:40:16.645Z,1576.00
2022-12-01T08:41:16.703Z,1624.00
2022-12-01T08:42:16.696Z,1708.00
2022-12-01T08:43:41.502Z,1616.00
2022-12-01T08:44:16.893Z,1484.00
2022-12-01T08:45:16.845Z,1452.00
2022-12-01T08:46:16.912Z,1408.00
2022-12-01T08:47:18.881Z,1508.00
2022-12-01T08:48:16.897Z,1568.00
2022-12-01T08:49:16.926Z,1596.00
2022-12-01T08:50:16.987Z,1752.00
2022-12-01T08:51:17.058Z,1856.00
2022-12-01T08:52:17.069Z,1952.00
2022-12-01T08:53:17.076Z,2076.00
2022-12-01T08:54:17.136Z,2108.00
2022-12-01T08:55:17.155Z,2056.00
2022-12-01T08:56:17.137Z,2080.00
2022-12-01T08:57:17.207Z,1952.00
2022-12-01T08:58:17.258Z,1976.00
2022-12-01T08:59:17.338Z,2048.00
2022-12-01T09:00:17.399Z,2196.00
2022-12-01T09:01:17.496Z,2160.00
2022-12-01T09:02:17.528Z,2104.00
2022-12-01T09:03:17.504Z,2036.00
2022-12-01T09:04:17.493Z,2112.00
2022-12-01T09:05:17.559Z,2216.00
2022-12-01T09:06:17.729Z,2220.00
2022-12-01T09:07:22.842Z,2452.00
2022-12-01T09:08:17.623Z,2524.00
2022-12-01T09:09:17.570Z,2496.00
2022-12-01T09:10:17.640Z,2720.00
2022-12-01T09:11:17.653Z,2804.00
2022-12-01T09:12:17.671Z,3084.00
2022-12-01T09:13:17.670Z,3236.00
2022-12-01T09:14:17.710Z,3160.00
2022-12-01T09:15:17.761Z,3256.00
2022-12-01T09:16:17.842Z,3332.00
2022-12-01T09:17:17.766Z,3328.00
2022-12-01T09:18:17.854Z,3296.00
2022-12-01T09:19:23.655Z,3324.00
2022-12-01T09:20:17.890Z,3340.00
2022-12-01T09:21:17.903Z,3500.00
2022-12-01T09:22:17.922Z,3416.00
2022-12-01T09:23:17.933Z,3284.00
2022-12-01T09:24:17.963Z,3652.00
2022-12-01T09:25:17.992Z,3664.00
2022-12-01T09:26:17.991Z,3540.00
2022-12-01T09:27:18.043Z,3508.00
2022-12-01T09:28:18.072Z,3400.00
2022-12-01T09:29:18.095Z,3252.00
2022-12-01T09:30:18.105Z,3008.00
2022-12-01T09:31:18.143Z,3128.00
2022-12-01T09:32:18.114Z,2940.00
2022-12-01T09:33:18.176Z,2760.00
2022-12-01T09:34:18.166Z,2640.00
2022-12-01T09:35:23.068Z,2556.00
2022-12-01T09:36:18.266Z,2704.00
2022-12-01T09:37:18.276Z,2808.00
2022-12-01T09:38:18.307Z,2712.00
2022-12-01T09:39:18.315Z,2928.00
2022-12-01T09:40:18.308Z,2652.00
2022-12-01T09:41:21.022Z,2908.00
2022-12-01T09:42:18.437Z,3140.00
2022-12-01T09:43:18.513Z,3204.00
2022-12-01T09:44:18.543Z,3184.00
2022-12-01T09:45:18.579Z,3204.00
2022-12-01T09:46:18.673Z,3324.00
2022-12-01T09:47:18.691Z,3624.00
2022-12-01T09:48:18.728Z,3704.00
2022-12-01T09:49:18.729Z,3968.00
2022-12-01T09:50:18.829Z,4040.00
2022-12-01T09:51:18.808Z,4044.00
2022-12-01T09:52:18.780Z,4380.00
2022-12-01T09:53:18.820Z,4228.00
2022-12-01T09:54:18.830Z,3988.00
2022-12-01T09:55:18.869Z,4236.00
2022-12-01T09:56:18.929Z,4700.00
2022-12-01T09:57:18.960Z,5268.00
2022-12-01T09:58:19.003Z,5288.00
2022-12-01T09:59:19.054Z,5248.00
2022-12-01T10:00:19.071Z,5780.00
2022-12-01T10:01:24.418Z,5436.00
2022-12-01T10:02:19.215Z,5768.00
2022-12-01T10:03:19.193Z,5912.00
2022-12-01T10:04:19.223Z,6004.00
2022-12-01T10:05:19.271Z,5844.00
2022-12-01T10:06:27.413Z,5996.00
2022-12-01T10:07:19.330Z,5948.00
2022-12-01T10:08:25.350Z,5904.00
2022-12-01T10:09:19.414Z,5624.00
2022-12-01T10:10:19.533Z,5180.00
2022-12-01T10:11:19.481Z,5156.00
2022-12-01T10:12:19.513Z,5304.00
2022-12-01T10:13:19.553Z,5016.00
2022-12-01T10:14:20.687Z,4808.00
2022-12-01T10:15:19.644Z,4972.00
2022-12-01T10:16:19.654Z,5032.00
2022-12-01T10:17:19.684Z,4968.00
2022-12-01T10:18:19.700Z,4504.00
2022-12-01T10:19:19.746Z,4740.00
2022-12-01T10:20:19.783Z,4672.00
2022-12-01T10:21:19.825Z,4796.00
2022-12-01T10:22:19.845Z,4612.00
2022-12-01T10:23:19.845Z,4732.00
2022-12-01T10:24:19.915Z,4544.00
2022-12-01T10:25:19.932Z,4412.00
2022-12-01T10:26:19.945Z,4264.00
2022-12-01T10:27:19.967Z,4384.00
2022-12-01T10:28:20.091Z,4308.00
2022-12-01T10:29:20.046Z,4332.00
2022-12-01T10:30:20.057Z,4376.00
2022-12-01T10:31:20.197Z,4380.00
2022-12-01T10:32:20.137Z,4416.00
2022-12-01T10:33:20.186Z,4180.00
2022-12-01T10:34:20.229Z,4268.00
2022-12-01T10:35:20.308Z,4352.00
2022-12-01T10:36:20.267Z,4560.00
2022-12-01T10:37:20.321Z,4304.00
2022-12-01T10:38:20.299Z,4480.00
2022-12-01T10:39:20.329Z,4544.00
2022-12-01T10:40:20.349Z,4608.00
2022-12-01T10:41:20.388Z,4560.00
2022-12-01T10:42:20.388Z,4548.00
2022-12-01T10:43:20.479Z,4712.00
2022-12-01T10:44:20.499Z,4596.00
2022-12-01T10:45:20.509Z,4688.00
2022-12-01T10:46:20.615Z,4680.00
2022-12-01T10:47:20.561Z,4580.00
2022-12-01T10:48:20.613Z,4644.00
2022-12-01T10:49:20.641Z,4728.00
2022-12-01T10:50:20.635Z,4612.00
2022-12-01T10:51:20.662Z,4696.00
2022-12-01T10:52:20.683Z,4580.00
2022-12-01T10:53:20.731Z,4668.00
2022-12-01T10:54:20.768Z,4556.00
2022-12-01T10:55:20.790Z,4740.00
2022-12-01T10:56:20.792Z,4796.00
2022-12-01T10:57:20.853Z,4468.00
2022-12-01T10:58:20.863Z,4244.00
2022-12-01T10:59:20.873Z,4196.00
2022-12-01T11:00:43.294Z,3936.00
2022-12-01T11:01:21.050Z,3660.00
2022-12-01T11:02:21.113Z,3856.00
2022-12-01T11:03:22.103Z,4052.00
2022-12-01T11:04:21.033Z,3996.00
2022-12-01T11:05:21.047Z,4496.00
2022-12-01T11:06:21.139Z,4308.00
2022-12-01T11:07:21.162Z,3988.00
2022-12-01T11:08:21.104Z,4056.00
2022-12-01T11:09:26.055Z,3996.00
2022-12-01T11:10:21.289Z,3904.00
2022-12-01T11:11:21.186Z,3860.00
2022-12-01T11:12:21.219Z,3648.00
2022-12-01T11:13:21.196Z,3636.00
2022-12-01T11:14:21.247Z,3492.00
2022-12-01T11:15:21.324Z,3548.00
2022-12-01T11:16:21.380Z,3728.00
2022-12-01T11:17:21.376Z,3768.00
2022-12-01T11:18:21.393Z,4008.00
2022-12-01T11:19:26.923Z,3828.00
2022-12-01T11:20:21.522Z,3740.00
2022-12-01T11:21:21.389Z,3400.00
2022-12-01T11:22:21.470Z,2944.00
2022-12-01T11:23:21.481Z,2680.00
2022-12-01T11:24:21.507Z,2652.00
2022-12-01T11:25:21.569Z,2556.00
2022-12-01T11:26:21.569Z,2588.00
2022-12-01T11:27:21.626Z,2716.00
2022-12-01T11:28:21.639Z,2792.00
2022-12-01T11:29:21.669Z,2972.00
2022-12-01T11:30:21.732Z,2920.00
2022-12-01T11:31:21.869Z,2804.00
2022-12-01T11:32:21.823Z,2676.00
2022-12-01T11:33:21.863Z,2788.00
2022-12-01T11:34:22.127Z,2904.00
2022-12-01T11:35:21.891Z,3272.00
2022-12-01T11:36:21.950Z,3360.00
2022-12-01T11:37:21.961Z,3284.00
2022-12-01T11:38:30.245Z,3116.00
2022-12-01T11:39:22.003Z,3104.00
2022-12-01T11:40:22.055Z,3236.00
2022-12-01T11:41:22.092Z,3244.00
2022-12-01T11:42:22.122Z,3264.00
2022-12-01T11:43:22.153Z,3348.00
2022-12-01T11:44:49.834Z,3624.00
2022-12-01T11:45:22.262Z,3728.00
2022-12-01T11:46:22.314Z,4008.00
2022-12-01T11:47:23.945Z,3740.00
2022-12-01T11:48:22.310Z,3628.00
2022-12-01T11:49:22.314Z,3576.00
2022-12-01T11:50:22.366Z,3428.00
2022-12-01T11:51:22.366Z,3180.00
2022-12-01T11:52:22.414Z,3256.00
2022-12-01T11:53:22.466Z,3232.00
2022-12-01T11:54:22.498Z,3300.00
2022-12-01T11:55:22.520Z,3236.00
2022-12-01T11:56:22.567Z,3092.00
2022-12-01T11:57:37.664Z,3076.00
2022-12-01T11:58:22.628Z,3224.00
2022-12-01T11:59:22.666Z,3032.00
2022-12-01T12:00:22.716Z,2864.00
2022-12-01T12:01:22.785Z,2852.00
2022-12-01T12:02:22.854Z,2528.00
2022-12-01T12:03:22.811Z,2532.00
2022-12-01T12:04:22.800Z,2416.00
2022-12-01T12:05:22.867Z,2460.00
2022-12-01T12:07:22.949Z,2428.00
2022-12-01T12:08:22.971Z,2340.00
2022-12-01T12:09:22.979Z,2268.00
2022-12-01T12:10:23.051Z,2472.00
2022-12-01T12:11:23.009Z,2536.00
2022-12-01T12:12:23.059Z,2744.00
2022-12-01T12:13:23.099Z,3036.00
2022-12-01T12:14:23.264Z,3068.00
2022-12-01T12:15:23.149Z,2932.00
2022-12-01T12:16:24.520Z,3044.00
2022-12-01T12:17:23.247Z,3084.00
2022-12-01T12:18:23.280Z,3072.00
2022-12-01T12:19:33.595Z,3320.00
2022-12-01T12:20:23.370Z,3436.00
2022-12-01T12:21:23.400Z,3416.00
2022-12-01T12:22:23.423Z,3632.00
2022-12-01T12:23:23.441Z,3636.00
2022-12-01T12:24:23.527Z,3580.00
2022-12-01T12:25:23.522Z,3588.00
2022-12-01T12:26:23.541Z,3228.00
2022-12-01T12:27:24.302Z,3244.00
2022-12-01T12:28:23.587Z,3212.00
2022-12-01T12:29:23.581Z,2944.00
2022-12-01T12:30:23.599Z,3064.00
2022-12-01T12:31:23.659Z,2900.00
2022-12-01T12:32:23.682Z,2820.00
2022-12-01T12:33:23.725Z,2804.00
2022-12-01T12:34:23.767Z,3056.00
2022-12-01T12:35:23.794Z,3128.00
2022-12-01T12:36:23.814Z,3236.00
2022-12-01T12:37:23.854Z,3244.00
2022-12-01T12:38:23.834Z,3680.00
2022-12-01T12:39:23.833Z,3576.00
2022-12-01T12:40:23.825Z,3592.00
2022-12-01T12:41:23.855Z,3572.00
2022-12-01T12:42:23.896Z,3444.00
2022-12-01T12:43:23.980Z,3352.00
2022-12-01T12:44:24.016Z,3388.00
2022-12-01T12:45:24.065Z,3312.00
2022-12-01T12:46:24.149Z,3360.00
2022-12-01T12:47:24.166Z,3228.00
2022-12-01T12:48:24.227Z,3192.00